Weather History for KD60 - December, 2013

Change the Weather History Date:

Monday, December 23, 2013

  Actual Average (KISN) Record (KISN)
Temperature  
Mean Temperature -12 °F 12 °F  
Max Temperature 8 °F 23 °F 48 °F (1936)
Min Temperature -32 °F 1 °F -50 °F (1983)
Degree Days  
Heating Degree Days 77 53  
Month to date heating degree days 1154  
Since 1 July heating degree days 3316  
Cooling Degree Days 0 0  
Month to date cooling degree days 0  
Year to date cooling degree days 456  
Moisture  
Dew Point -19 °F    
Average Humidity 82    
Maximum Humidity 100    
Minimum Humidity 68    
Precipitation  
Precipitation 0.00 in 0.02 in 0.40 in (1917)
Month to date precipitation 0.45  
Year to date precipitation 14.20  
Sea Level Pressure  
Sea Level Pressure 30.23 in    
Wind  
Wind Speed 6 mph (South)    
Max Wind Speed 23 mph    
Max Gust Speed 29 mph    
Visibility 10 miles    
Events Snow    
T = Trace of Precipitation, MM = Missing Value Source: NWS Daily Summary

Daily Weather History Graph

Daily Weather History Graph

Search for Another Location

Airport or City:

Trip Planner

Search our weather history database for the weather conditions in past years. The results will help you decide how hot, cold, wet, or windy it might be!

Date:

Astronomy

Dec. 23, 2013 Rise Set
Actual Time 8:41 AM CST 5:00 PM CST
Civil Twilight 8:04 AM CST 5:37 PM CST
Nautical Twilight 7:24 AM CST 6:17 PM CST
Astronomical Twilight 6:46 AM CST 6:55 PM CST
Moon 11:41 PM CST (12/23) 11:41 AM CST (12/23)
Length of Visible Light 9h 32m
Length of Day
8h 19m
Waning Gibbous, 68% of the Moon is Illuminated
Dec 23
Waning Gibbous
Dec 25
Last Quarter
Jan 1
New
Jan 7
First Quarter
Jan 15
Full

Hourly Weather History & Observations

Time (CST) Temp. Windchill Dew Point Humidity Pressure Visibility Wind Dir Wind Speed Gust Speed Precip Events Conditions
12:15 AM -22.0 °F - -27.4 °F 76% 30.43 in 10.0 mi Calm Calm - N/A   Clear
12:35 AM -22.0 °F -33.0 °F -27.4 °F 76% 30.44 in 10.0 mi SW 3.5 mph - N/A   Clear
12:55 AM -25.6 °F -37.1 °F -29.2 °F 83% 30.43 in 10.0 mi WSW 3.5 mph - N/A   Clear
1:15 AM -29.2 °F -44.0 °F -34.6 °F 75% 30.43 in 10.0 mi West 4.6 mph - N/A   Clear
1:35 AM -27.4 °F -41.9 °F -32.8 °F 75% 30.43 in 10.0 mi West 4.6 mph - N/A   Clear
1:55 AM -25.6 °F -39.8 °F -29.2 °F 83% 30.42 in 10.0 mi WSW 4.6 mph - N/A   Clear
2:15 AM -25.6 °F -39.8 °F -31.0 °F 76% 30.43 in 10.0 mi WSW 4.6 mph - N/A   Clear
2:35 AM -27.4 °F -39.2 °F -32.8 °F 75% 30.43 in 10.0 mi West 3.5 mph - N/A   Clear
2:55 AM -25.6 °F - -31.0 °F 76% 30.43 in 10.0 mi Calm Calm - N/A   Clear
3:15 AM -27.4 °F -39.2 °F -32.8 °F 75% 30.43 in 10.0 mi WNW 3.5 mph - N/A   Clear
3:35 AM -27.4 °F -41.9 °F -32.8 °F 75% 30.43 in 10.0 mi WSW 4.6 mph - N/A   Clear
3:55 AM -29.2 °F -44.0 °F -34.6 °F 75% 30.43 in 10.0 mi WSW 4.6 mph - N/A   Clear
4:15 AM -29.2 °F - -34.6 °F 75% 30.42 in 10.0 mi Calm Calm - N/A   Clear
4:35 AM -27.4 °F - -32.8 °F 75% 30.42 in 10.0 mi Calm Calm - N/A   Clear
4:55 AM -31.0 °F -43.3 °F -36.4 °F 75% 30.42 in 10.0 mi WSW 3.5 mph - N/A   Clear
5:15 AM -31.0 °F - -36.4 °F 75% 30.41 in 10.0 mi Calm Calm - N/A   Clear
5:35 AM -31.0 °F - -36.4 °F 75% 30.41 in 10.0 mi Calm Calm - N/A   Clear
5:55 AM -31.0 °F - -36.4 °F 75% 30.41 in 10.0 mi Calm Calm - N/A   Partly Cloudy
6:15 AM -29.2 °F - -36.4 °F 68% 30.40 in 10.0 mi Calm Calm - N/A   Clear
6:35 AM -31.0 °F - -38.2 °F 68% 30.39 in 10.0 mi Calm Calm - N/A   Clear
6:55 AM -31.0 °F -43.3 °F -38.2 °F 68% 30.39 in 10.0 mi SE 3.5 mph - N/A   Clear
7:15 AM -31.0 °F - -38.2 °F 68% 30.39 in 10.0 mi Calm Calm - N/A   Partly Cloudy
7:35 AM -31.0 °F - -36.4 °F 75% 30.39 in 10.0 mi Calm Calm - N/A   Clear
7:55 AM -31.0 °F - -38.2 °F 68% 30.39 in 10.0 mi Calm Calm - N/A   Clear
8:15 AM -31.0 °F - -36.4 °F 75% 30.39 in 10.0 mi Calm Calm - N/A   Clear
8:35 AM -31.0 °F - -36.4 °F 75% 30.38 in 10.0 mi Calm Calm - N/A   Clear
8:55 AM -32.8 °F -48.2 °F -38.2 °F 75% 30.38 in 10.0 mi East 4.6 mph - N/A   Clear
9:15 AM -32.8 °F -50.5 °F -38.2 °F 75% 30.37 in 10.0 mi East 5.8 mph - N/A   Clear
9:35 AM -31.0 °F -46.1 °F -38.2 °F 68% 30.37 in 10.0 mi East 4.6 mph - N/A   Clear
9:55 AM -31.0 °F - -36.4 °F 75% 30.37 in 10.0 mi Calm Calm - N/A   Clear
10:15 AM -29.2 °F -41.2 °F -36.4 °F 68% 30.36 in 10.0 mi ENE 3.5 mph - N/A   Clear
10:35 AM -29.2 °F -44.0 °F -34.6 °F 75% 30.35 in 9.0 mi East 4.6 mph - N/A   Partly Cloudy
10:55 AM -25.6 °F -37.1 °F -31.0 °F 76% 30.35 in 9.0 mi East 3.5 mph - N/A   Mostly Cloudy
11:15 AM -22.0 °F -35.6 °F -27.4 °F 76% 30.34 in 8.0 mi SE 4.6 mph - N/A   Mostly Cloudy
11:35 AM -13.0 °F -27.0 °F -18.4 °F 77% 30.34 in 9.0 mi South 5.8 mph - N/A   Overcast
11:55 AM -13.0 °F -30.0 °F -16.6 °F 84% 30.33 in 7.0 mi South 8.1 mph - N/A   Overcast
12:15 PM -11.2 °F -29.0 °F -14.8 °F 84% 30.32 in 10.0 mi South 9.2 mph - N/A   Overcast
12:35 PM -11.2 °F -24.8 °F -14.8 °F 84% 30.30 in 10.0 mi South 5.8 mph - N/A   Overcast
12:55 PM -9.4 °F -20.9 °F -13.0 °F 84% 30.29 in 10.0 mi SSE 4.6 mph - N/A   Mostly Cloudy
1:15 PM -9.4 °F -20.9 °F -13.0 °F 84% 30.27 in 10.0 mi SSE 4.6 mph - N/A   Partly Cloudy
1:35 PM -9.4 °F -25.6 °F -11.2 °F 92% 30.24 in 10.0 mi SSE 8.1 mph - N/A   Clear
1:55 PM -7.6 °F -24.6 °F -11.2 °F 84% 30.23 in 10.0 mi South 9.2 mph - N/A   Clear
2:15 PM -9.4 °F -24.3 °F -11.2 °F 92% 30.23 in 10.0 mi South 6.9 mph - N/A   Partly Cloudy
2:35 PM -7.6 °F -26.6 °F -11.2 °F 84% 30.21 in 10.0 mi South 11.5 mph - N/A   Partly Cloudy
2:55 PM -7.6 °F -29.1 °F -11.2 °F 84% 30.18 in 10.0 mi SSE 15.0 mph 19.6 mph N/A   Clear
3:15 PM -7.6 °F -29.8 °F -11.2 °F 84% 30.17 in 10.0 mi SSE 16.1 mph 23.0 mph N/A   Clear
3:35 PM -7.6 °F -29.8 °F -9.4 °F 92% 30.16 in 10.0 mi SSE 16.1 mph - N/A   Clear
3:55 PM -5.8 °F -26.0 °F -9.4 °F 84% 30.15 in 10.0 mi SSE 13.8 mph - N/A   Clear
4:15 PM -4.0 °F -24.5 °F -7.6 °F 85% 30.13 in 10.0 mi SSE 15.0 mph - N/A   Clear
4:35 PM -4.0 °F -24.5 °F -7.6 °F 85% 30.12 in 10.0 mi SSE 15.0 mph 19.6 mph N/A   Clear
4:55 PM -4.0 °F -22.1 °F -5.8 °F 92% 30.11 in 10.0 mi SSE 11.5 mph - N/A   Clear
5:15 PM -2.2 °F -21.5 °F -5.8 °F 85% 30.10 in 10.0 mi SSE 13.8 mph - N/A   Clear
5:35 PM -2.2 °F -23.5 °F -5.8 °F 85% 30.08 in 10.0 mi SSE 17.3 mph 23.0 mph N/A   Clear
5:55 PM -2.2 °F -22.2 °F -4.0 °F 92% 30.07 in 10.0 mi SSE 15.0 mph 19.6 mph N/A   Clear
6:15 PM -2.2 °F -22.2 °F -4.0 °F 92% 30.05 in 10.0 mi SSE 15.0 mph 21.9 mph N/A   Clear
6:35 PM -2.2 °F -24.7 °F -4.0 °F 92% 30.02 in 10.0 mi SSE 19.6 mph - N/A   Clear
6:55 PM -0.4 °F -18.4 °F -2.2 °F 92% 29.99 in 10.0 mi SSE 12.7 mph 20.7 mph N/A   Clear
7:15 PM -0.4 °F -21.7 °F -0.4 °F 100% 29.99 in 10.0 mi SSE 18.4 mph - N/A   Clear
7:35 PM -0.4 °F -21.7 °F -0.4 °F 100% 29.98 in 10.0 mi South 18.4 mph 25.3 mph N/A Snow Light Snow
7:55 PM -0.4 °F -21.7 °F -0.4 °F 100% 29.97 in 10.0 mi South 18.4 mph 25.3 mph N/A   Overcast
8:15 PM 1.4 °F -18.8 °F -0.4 °F 92% 29.95 in 10.0 mi South 17.3 mph 25.3 mph N/A   Overcast
8:35 PM 1.4 °F -20.5 °F -0.4 °F 92% 29.95 in 10.0 mi South 20.7 mph - N/A   Overcast
8:55 PM 1.4 °F -20.5 °F -0.4 °F 92% 29.92 in 10.0 mi SSE 20.7 mph 28.8 mph N/A Snow Light Snow
9:15 PM 3.2 °F -16.5 °F 1.4 °F 92% 29.92 in 10.0 mi South 17.3 mph 25.3 mph N/A   Overcast
9:35 PM 5.0 °F -16.7 °F 1.4 °F 85% 29.89 in 10.0 mi South 23.0 mph 27.6 mph N/A   Overcast
9:55 PM 5.0 °F -16.2 °F 3.2 °F 92% 29.87 in 10.0 mi SSE 21.9 mph 26.5 mph N/A   Overcast
10:15 PM 6.8 °F -12.9 °F 5.0 °F 92% 29.87 in 10.0 mi South 19.6 mph 25.3 mph N/A   Overcast
10:35 PM 6.8 °F -11.8 °F 5.0 °F 92% 29.86 in 10.0 mi South 17.3 mph 23.0 mph N/A   Overcast
10:55 PM 6.8 °F -7.8 °F 5.0 °F 92% 29.87 in 10.0 mi SSE 10.4 mph 19.6 mph N/A   Overcast
11:15 PM 8.6 °F -10.0 °F 5.0 °F 85% 29.85 in 10.0 mi South 18.4 mph - N/A   Overcast
11:35 PM 6.8 °F -9.3 °F 5.0 °F 92% 29.84 in 10.0 mi South 12.7 mph 18.4 mph N/A   Scattered Clouds
11:55 PM 6.8 °F -10.0 °F 5.0 °F 92% 29.83 in 10.0 mi South 13.8 mph - N/A   Scattered Clouds